sensor_id;sensor_type;location;lat;lon;timestamp;temperature;humidity
9699;DHT22;10089;47.876;8.346;2022-12-29T00:02:17;4.80;1.00
9699;DHT22;10089;47.876;8.346;2022-12-29T00:04:43;4.80;1.00
9699;DHT22;10089;47.876;8.346;2022-12-29T00:07:09;4.80;1.00
9699;DHT22;10089;47.876;8.346;2022-12-29T00:09:35;4.80;1.00
9699;DHT22;10089;47.876;8.346;2022-12-29T00:12:01;4.80;1.00
9699;DHT22;10089;47.876;8.346;2022-12-29T00:14:28;4.60;1.00
9699;DHT22;10089;47.876;8.346;2022-12-29T00:17:12;4.60;1.00
9699;DHT22;10089;47.876;8.346;2022-12-29T00:19:38;4.60;1.00
9699;DHT22;10089;47.876;8.346;2022-12-29T00:22:23;4.50;1.00
9699;DHT22;10089;47.876;8.346;2022-12-29T00:25:11;4.60;1.00
9699;DHT22;10089;47.876;8.346;2022-12-29T00:27:56;4.50;1.00
9699;DHT22;10089;47.876;8.346;2022-12-29T00:30:41;4.60;1.00
9699;DHT22;10089;47.876;8.346;2022-12-29T00:33:29;4.80;1.00
9699;DHT22;10089;47.876;8.346;2022-12-29T00:36:36;5.10;1.00
9699;DHT22;10089;47.876;8.346;2022-12-29T00:39:09;5.10;1.00
9699;DHT22;10089;47.876;8.346;2022-12-29T00:41:54;5.30;99.90
9699;DHT22;10089;47.876;8.346;2022-12-29T00:44:38;5.40;99.90
9699;DHT22;10089;47.876;8.346;2022-12-29T00:47:03;5.30;99.90
9699;DHT22;10089;47.876;8.346;2022-12-29T00:49:31;5.20;1.00
9699;DHT22;10089;47.876;8.346;2022-12-29T00:52:08;5.20;99.90
9699;DHT22;10089;47.876;8.346;2022-12-29T00:54:36;5.10;1.00
9699;DHT22;10089;47.876;8.346;2022-12-29T00:57:02;5.10;99.90
9699;DHT22;10089;47.876;8.346;2022-12-29T00:59:28;5.20;1.00
9699;DHT22;10089;47.876;8.346;2022-12-29T01:01:55;5.10;1.00
9699;DHT22;10089;47.876;8.346;2022-12-29T01:04:22;4.60;1.00
9699;DHT22;10089;47.876;8.346;2022-12-29T01:06:48;4.40;1.00
9699;DHT22;10089;47.876;8.346;2022-12-29T01:09:13;4.10;1.00
9699;DHT22;10089;47.876;8.346;2022-12-29T01:11:58;3.70;1.00
9699;DHT22;10089;47.876;8.346;2022-12-29T01:14:23;3.30;99.90
9699;DHT22;10089;47.876;8.346;2022-12-29T01:16:50;3.20;99.90
9699;DHT22;10089;47.876;8.346;2022-12-29T01:19:17;3.00;99.90
9699;DHT22;10089;47.876;8.346;2022-12-29T01:21:43;2.90;99.90
9699;DHT22;10089;47.876;8.346;2022-12-29T01:24:09;3.00;99.90
9699;DHT22;10089;47.876;8.346;2022-12-29T01:26:34;3.30;99.90
9699;DHT22;10089;47.876;8.346;2022-12-29T01:29:00;3.10;99.90
9699;DHT22;10089;47.876;8.346;2022-12-29T01:31:26;3.00;99.90
9699;DHT22;10089;47.876;8.346;2022-12-29T01:33:51;3.10;99.90
9699;DHT22;10089;47.876;8.346;2022-12-29T01:36:18;2.90;99.90
9699;DHT22;10089;47.876;8.346;2022-12-29T01:38:44;2.90;99.90
9699;DHT22;10089;47.876;8.346;2022-12-29T01:41:12;3.20;99.90
9699;DHT22;10089;47.876;8.346;2022-12-29T01:51:40;3.20;99.90
9699;DHT22;10089;47.876;8.346;2022-12-29T01:54:11;3.30;99.90
9699;DHT22;10089;47.876;8.346;2022-12-29T01:56:38;3.50;55.30
9699;DHT22;10089;47.876;8.346;2022-12-29T01:59:08;3.60;42.50
9699;DHT22;10089;47.876;8.346;2022-12-29T02:01:36;3.60;51.50
9699;DHT22;10089;47.876;8.346;2022-12-29T02:04:02;3.70;4.50
9699;DHT22;10089;47.876;8.346;2022-12-29T02:06:35;3.60;29.20
9699;DHT22;10089;47.876;8.346;2022-12-29T02:09:03;3.60;1.00
9699;DHT22;10089;47.876;8.346;2022-12-29T02:11:29;3.60;1.00
9699;DHT22;10089;47.876;8.346;2022-12-29T02:13:56;3.60;1.00
9699;DHT22;10089;47.876;8.346;2022-12-29T02:22:17;3.70;1.00
9699;DHT22;10089;47.876;8.346;2022-12-29T02:40:22;3.20;99.90
9699;DHT22;10089;47.876;8.346;2022-12-29T02:48:38;2.80;99.90
9699;DHT22;10089;47.876;8.346;2022-12-29T02:51:12;2.90;99.90
9699;DHT22;10089;47.876;8.346;2022-12-29T02:53:40;3.00;99.90
9699;DHT22;10089;47.876;8.346;2022-12-29T02:56:25;3.00;99.90
9699;DHT22;10089;47.876;8.346;2022-12-29T02:58:50;3.00;99.90
9699;DHT22;10089;47.876;8.346;2022-12-29T03:04:12;2.90;99.90
9699;DHT22;10089;47.876;8.346;2022-12-29T03:09:53;3.00;99.90
9699;DHT22;10089;47.876;8.346;2022-12-29T03:21:08;3.70;1.00
9699;DHT22;10089;47.876;8.346;2022-12-29T03:23:36;3.20;1.00
9699;DHT22;10089;47.876;8.346;2022-12-29T03:26:06;3.10;10.80
9699;DHT22;10089;47.876;8.346;2022-12-29T03:28:40;3.00;90.30
9699;DHT22;10089;47.876;8.346;2022-12-29T03:31:09;2.90;99.90
9699;DHT22;10089;47.876;8.346;2022-12-29T03:33:37;2.80;99.90
9699;DHT22;10089;47.876;8.346;2022-12-29T03:36:07;2.80;99.90
9699;DHT22;10089;47.876;8.346;2022-12-29T03:38:55;2.70;99.90
9699;DHT22;10089;47.876;8.346;2022-12-29T03:41:25;2.70;99.90
9699;DHT22;10089;47.876;8.346;2022-12-29T03:43:52;2.80;99.90
9699;DHT22;10089;47.876;8.346;2022-12-29T03:46:18;2.90;99.90
9699;DHT22;10089;47.876;8.346;2022-12-29T03:48:44;3.20;99.90
9699;DHT22;10089;47.876;8.346;2022-12-29T03:51:09;3.40;1.00
9699;DHT22;10089;47.876;8.346;2022-12-29T03:53:35;3.80;1.00
9699;DHT22;10089;47.876;8.346;2022-12-29T03:56:01;3.90;1.00
9699;DHT22;10089;47.876;8.346;2022-12-29T03:58:27;4.10;1.00
9699;DHT22;10089;47.876;8.346;2022-12-29T04:00:53;4.60;1.00
9699;DHT22;10089;47.876;8.346;2022-12-29T04:03:18;4.80;1.00
9699;DHT22;10089;47.876;8.346;2022-12-29T04:05:44;4.70;1.00
9699;DHT22;10089;47.876;8.346;2022-12-29T04:08:10;4.30;1.00
9699;DHT22;10089;47.876;8.346;2022-12-29T04:10:35;4.00;1.00
9699;DHT22;10089;47.876;8.346;2022-12-29T04:13:01;4.00;1.00
9699;DHT22;10089;47.876;8.346;2022-12-29T04:15:27;4.10;1.00
9699;DHT22;10089;47.876;8.346;2022-12-29T04:17:52;4.70;1.00
9699;DHT22;10089;47.876;8.346;2022-12-29T04:20:18;5.10;99.90
9699;DHT22;10089;47.876;8.346;2022-12-29T04:23:07;4.80;99.90
9699;DHT22;10089;47.876;8.346;2022-12-29T04:25:33;4.80;1.00
9699;DHT22;10089;47.876;8.346;2022-12-29T04:28:00;5.10;1.00
9699;DHT22;10089;47.876;8.346;2022-12-29T04:30:26;4.90;1.00
9699;DHT22;10089;47.876;8.346;2022-12-29T04:32:51;5.00;1.00
9699;DHT22;10089;47.876;8.346;2022-12-29T04:35:17;5.10;1.00
9699;DHT22;10089;47.876;8.346;2022-12-29T04:37:43;4.90;1.00
9699;DHT22;10089;47.876;8.346;2022-12-29T04:40:09;5.10;1.00
9699;DHT22;10089;47.876;8.346;2022-12-29T04:42:35;5.60;99.90
9699;DHT22;10089;47.876;8.346;2022-12-29T04:45:01;5.80;99.90
9699;DHT22;10089;47.876;8.346;2022-12-29T04:47:27;5.70;99.90
9699;DHT22;10089;47.876;8.346;2022-12-29T04:49:52;6.00;99.90
9699;DHT22;10089;47.876;8.346;2022-12-29T04:52:18;6.30;1.00
9699;DHT22;10089;47.876;8.346;2022-12-29T04:54:45;6.30;1.00
9699;DHT22;10089;47.876;8.346;2022-12-29T04:57:10;6.30;34.20
9699;DHT22;10089;47.876;8.346;2022-12-29T04:59:39;6.30;99.90
9699;DHT22;10089;47.876;8.346;2022-12-29T05:02:05;6.40;99.90
9699;DHT22;10089;47.876;8.346;2022-12-29T05:04:30;6.30;99.90
9699;DHT22;10089;47.876;8.346;2022-12-29T05:06:56;6.30;1.00
9699;DHT22;10089;47.876;8.346;2022-12-29T05:09:24;6.30;1.00
9699;DHT22;10089;47.876;8.346;2022-12-29T05:11:50;6.30;1.00
9699;DHT22;10089;47.876;8.346;2022-12-29T05:14:15;6.20;1.00
9699;DHT22;10089;47.876;8.346;2022-12-29T05:16:41;6.10;1.00
9699;DHT22;10089;47.876;8.346;2022-12-29T05:19:07;6.10;1.00
9699;DHT22;10089;47.876;8.346;2022-12-29T05:21:32;6.40;1.00
9699;DHT22;10089;47.876;8.346;2022-12-29T05:23:58;6.40;1.00
9699;DHT22;10089;47.876;8.346;2022-12-29T05:26:25;6.30;1.00
9699;DHT22;10089;47.876;8.346;2022-12-29T05:28:52;6.40;1.00
9699;DHT22;10089;47.876;8.346;2022-12-29T05:31:18;6.40;1.00
9699;DHT22;10089;47.876;8.346;2022-12-29T05:33:44;6.40;1.00
9699;DHT22;10089;47.876;8.346;2022-12-29T05:36:10;6.40;1.00
9699;DHT22;10089;47.876;8.346;2022-12-29T05:38:35;6.30;1.00
9699;DHT22;10089;47.876;8.346;2022-12-29T05:41:02;6.50;1.00
9699;DHT22;10089;47.876;8.346;2022-12-29T05:43:28;6.40;1.00
9699;DHT22;10089;47.876;8.346;2022-12-29T05:45:54;6.50;1.00
9699;DHT22;10089;47.876;8.346;2022-12-29T05:48:20;6.60;1.00
9699;DHT22;10089;47.876;8.346;2022-12-29T05:50:50;6.60;99.90
9699;DHT22;10089;47.876;8.346;2022-12-29T05:53:17;6.50;1.00
9699;DHT22;10089;47.876;8.346;2022-12-29T05:55:44;6.60;1.00
9699;DHT22;10089;47.876;8.346;2022-12-29T05:58:11;6.60;1.00
9699;DHT22;10089;47.876;8.346;2022-12-29T06:00:37;6.70;1.00
9699;DHT22;10089;47.876;8.346;2022-12-29T06:03:04;6.80;1.00
9699;DHT22;10089;47.876;8.346;2022-12-29T06:05:30;6.80;1.00
9699;DHT22;10089;47.876;8.346;2022-12-29T06:07:55;6.60;1.00
9699;DHT22;10089;47.876;8.346;2022-12-29T06:10:22;6.80;99.90
9699;DHT22;10089;47.876;8.346;2022-12-29T06:12:49;7.10;1.00
9699;DHT22;10089;47.876;8.346;2022-12-29T06:15:15;7.10;1.00
9699;DHT22;10089;47.876;8.346;2022-12-29T06:17:41;7.10;1.00
9699;DHT22;10089;47.876;8.346;2022-12-29T06:20:07;7.20;99.90
9699;DHT22;10089;47.876;8.346;2022-12-29T06:22:33;7.20;99.90
9699;DHT22;10089;47.876;8.346;2022-12-29T06:24:59;7.00;1.00
9699;DHT22;10089;47.876;8.346;2022-12-29T06:27:25;7.00;1.00
9699;DHT22;10089;47.876;8.346;2022-12-29T06:29:51;7.10;99.90
9699;DHT22;10089;47.876;8.346;2022-12-29T06:32:16;7.20;1.00
9699;DHT22;10089;47.876;8.346;2022-12-29T06:34:42;7.20;99.90
9699;DHT22;10089;47.876;8.346;2022-12-29T06:37:10;7.30;99.90
9699;DHT22;10089;47.876;8.346;2022-12-29T06:39:36;7.20;1.00
9699;DHT22;10089;47.876;8.346;2022-12-29T06:42:02;7.40;1.00
9699;DHT22;10089;47.876;8.346;2022-12-29T06:44:28;7.40;99.90
9699;DHT22;10089;47.876;8.346;2022-12-29T06:46:54;7.50;99.90
9699;DHT22;10089;47.876;8.346;2022-12-29T06:49:20;7.60;99.90
9699;DHT22;10089;47.876;8.346;2022-12-29T06:51:46;7.60;1.00
9699;DHT22;10089;47.876;8.346;2022-12-29T06:54:12;7.50;99.90
9699;DHT22;10089;47.876;8.346;2022-12-29T06:56:37;7.50;1.00
9699;DHT22;10089;47.876;8.346;2022-12-29T06:59:22;7.50;73.80
9699;DHT22;10089;47.876;8.346;2022-12-29T07:01:48;7.30;79.10
9699;DHT22;10089;47.876;8.346;2022-12-29T07:04:13;7.30;99.90
9699;DHT22;10089;47.876;8.346;2022-12-29T07:06:39;7.30;99.90
9699;DHT22;10089;47.876;8.346;2022-12-29T07:09:06;7.20;1.00
9699;DHT22;10089;47.876;8.346;2022-12-29T07:11:32;7.20;1.00
9699;DHT22;10089;47.876;8.346;2022-12-29T07:13:58;7.20;99.90
9699;DHT22;10089;47.876;8.346;2022-12-29T07:16:24;7.00;99.90
9699;DHT22;10089;47.876;8.346;2022-12-29T07:18:50;6.90;99.90
9699;DHT22;10089;47.876;8.346;2022-12-29T07:21:17;6.60;1.00
9699;DHT22;10089;47.876;8.346;2022-12-29T07:23:43;6.40;99.90
9699;DHT22;10089;47.876;8.346;2022-12-29T07:26:11;6.50;99.90
9699;DHT22;10089;47.876;8.346;2022-12-29T07:28:37;6.70;86.50
9699;DHT22;10089;47.876;8.346;2022-12-29T07:31:04;6.80;10.30
9699;DHT22;10089;47.876;8.346;2022-12-29T07:33:32;6.60;99.90
9699;DHT22;10089;47.876;8.346;2022-12-29T07:35:58;6.50;99.90
9699;DHT22;10089;47.876;8.346;2022-12-29T07:38:24;6.40;1.00
9699;DHT22;10089;47.876;8.346;2022-12-29T07:40:50;6.40;1.00
9699;DHT22;10089;47.876;8.346;2022-12-29T07:43:19;6.40;1.00
9699;DHT22;10089;47.876;8.346;2022-12-29T07:45:45;6.40;1.00
9699;DHT22;10089;47.876;8.346;2022-12-29T07:48:10;6.60;99.90
9699;DHT22;10089;47.876;8.346;2022-12-29T07:50:36;6.60;99.90
9699;DHT22;10089;47.876;8.346;2022-12-29T07:53:02;6.60;1.00
9699;DHT22;10089;47.876;8.346;2022-12-29T07:55:29;6.50;1.00
9699;DHT22;10089;47.876;8.346;2022-12-29T07:57:56;6.40;1.00
9699;DHT22;10089;47.876;8.346;2022-12-29T08:00:27;6.50;1.00
9699;DHT22;10089;47.876;8.346;2022-12-29T08:02:53;6.50;1.00
9699;DHT22;10089;47.876;8.346;2022-12-29T08:05:19;6.20;1.00
9699;DHT22;10089;47.876;8.346;2022-12-29T08:07:45;6.20;1.00
9699;DHT22;10089;47.876;8.346;2022-12-29T08:10:12;6.10;33.20
9699;DHT22;10089;47.876;8.346;2022-12-29T08:12:38;6.10;94.50
9699;DHT22;10089;47.876;8.346;2022-12-29T08:15:05;6.10;99.90
9699;DHT22;10089;47.876;8.346;2022-12-29T08:17:31;6.10;99.90
9699;DHT22;10089;47.876;8.346;2022-12-29T08:19:58;6.00;99.90
9699;DHT22;10089;47.876;8.346;2022-12-29T08:22:24;6.00;99.90
9699;DHT22;10089;47.876;8.346;2022-12-29T08:24:50;6.10;99.90
9699;DHT22;10089;47.876;8.346;2022-12-29T08:27:17;6.10;70.70
9699;DHT22;10089;47.876;8.346;2022-12-29T08:29:43;6.60;11.20
9699;DHT22;10089;47.876;8.346;2022-12-29T08:32:09;6.70;59.80
9699;DHT22;10089;47.876;8.346;2022-12-29T08:34:35;6.80;99.90
9699;DHT22;10089;47.876;8.346;2022-12-29T08:37:00;7.00;99.90
9699;DHT22;10089;47.876;8.346;2022-12-29T08:39:26;6.90;99.90
9699;DHT22;10089;47.876;8.346;2022-12-29T08:41:52;6.90;99.90
9699;DHT22;10089;47.876;8.346;2022-12-29T08:44:18;6.80;99.90
9699;DHT22;10089;47.876;8.346;2022-12-29T08:46:44;6.90;99.90
9699;DHT22;10089;47.876;8.346;2022-12-29T08:49:09;6.90;99.90
9699;DHT22;10089;47.876;8.346;2022-12-29T08:51:35;6.90;99.90
9699;DHT22;10089;47.876;8.346;2022-12-29T08:54:01;6.80;99.90
9699;DHT22;10089;47.876;8.346;2022-12-29T08:56:27;6.90;99.90
9699;DHT22;10089;47.876;8.346;2022-12-29T08:58:53;6.80;99.90
9699;DHT22;10089;47.876;8.346;2022-12-29T09:01:19;6.80;99.90
9699;DHT22;10089;47.876;8.346;2022-12-29T09:03:46;6.80;99.90
9699;DHT22;10089;47.876;8.346;2022-12-29T09:06:12;6.80;99.90
9699;DHT22;10089;47.876;8.346;2022-12-29T09:08:42;6.80;99.90
9699;DHT22;10089;47.876;8.346;2022-12-29T09:11:13;6.80;99.90
9699;DHT22;10089;47.876;8.346;2022-12-29T09:13:39;6.70;99.90
9699;DHT22;10089;47.876;8.346;2022-12-29T09:16:05;6.80;99.90
9699;DHT22;10089;47.876;8.346;2022-12-29T09:18:31;6.80;99.90
9699;DHT22;10089;47.876;8.346;2022-12-29T09:21:01;6.80;99.90
9699;DHT22;10089;47.876;8.346;2022-12-29T09:23:28;6.90;99.90
9699;DHT22;10089;47.876;8.346;2022-12-29T09:25:54;7.00;99.90
9699;DHT22;10089;47.876;8.346;2022-12-29T09:28:21;7.00;99.90
9699;DHT22;10089;47.876;8.346;2022-12-29T09:30:47;7.10;99.90
9699;DHT22;10089;47.876;8.346;2022-12-29T09:33:13;7.10;99.90
9699;DHT22;10089;47.876;8.346;2022-12-29T09:35:49;7.10;99.90
9699;DHT22;10089;47.876;8.346;2022-12-29T09:38:15;7.10;99.90
9699;DHT22;10089;47.876;8.346;2022-12-29T09:40:45;7.20;99.90
9699;DHT22;10089;47.876;8.346;2022-12-29T09:43:36;7.20;99.90
9699;DHT22;10089;47.876;8.346;2022-12-29T09:48:43;7.20;99.90
9699;DHT22;10089;47.876;8.346;2022-12-29T09:51:15;7.10;99.90
9699;DHT22;10089;47.876;8.346;2022-12-29T09:53:45;7.10;99.90
9699;DHT22;10089;47.876;8.346;2022-12-29T09:56:18;7.10;99.90
9699;DHT22;10089;47.876;8.346;2022-12-29T09:58:50;7.10;99.90
9699;DHT22;10089;47.876;8.346;2022-12-29T10:03:54;7.10;99.90
9699;DHT22;10089;47.876;8.346;2022-12-29T10:06:37;7.10;99.90
9699;DHT22;10089;47.876;8.346;2022-12-29T10:12:02;7.10;99.90
9699;DHT22;10089;47.876;8.346;2022-12-29T10:17:26;7.20;99.90
9699;DHT22;10089;47.876;8.346;2022-12-29T10:20:27;7.20;99.90
9699;DHT22;10089;47.876;8.346;2022-12-29T10:23:22;7.20;99.90
9699;DHT22;10089;47.876;8.346;2022-12-29T10:25:52;7.20;99.90
9699;DHT22;10089;47.876;8.346;2022-12-29T10:28:24;7.20;99.90
9699;DHT22;10089;47.876;8.346;2022-12-29T10:30:54;7.10;99.90
9699;DHT22;10089;47.876;8.346;2022-12-29T10:33:31;7.10;99.90
9699;DHT22;10089;47.876;8.346;2022-12-29T10:35:57;7.10;99.90
9699;DHT22;10089;47.876;8.346;2022-12-29T10:38:37;7.00;99.90
9699;DHT22;10089;47.876;8.346;2022-12-29T10:41:28;7.00;99.90
9699;DHT22;10089;47.876;8.346;2022-12-29T10:43:56;4.80;99.90
9699;DHT22;10089;47.876;8.346;2022-12-29T11:28:01;7.60;99.90
9699;DHT22;10089;47.876;8.346;2022-12-29T11:30:30;7.60;99.90
9699;DHT22;10089;47.876;8.346;2022-12-29T11:32:58;7.60;99.90
9699;DHT22;10089;47.876;8.346;2022-12-29T11:35:40;7.60;99.90
9699;DHT22;10089;47.876;8.346;2022-12-29T11:38:23;7.60;99.90
9699;DHT22;10089;47.876;8.346;2022-12-29T11:40:51;7.60;99.90
9699;DHT22;10089;47.876;8.346;2022-12-29T11:43:30;7.60;99.90
9699;DHT22;10089;47.876;8.346;2022-12-29T11:45:59;7.70;99.90
9699;DHT22;10089;47.876;8.346;2022-12-29T11:48:30;7.70;99.90
9699;DHT22;10089;47.876;8.346;2022-12-29T11:50:58;7.70;99.90
9699;DHT22;10089;47.876;8.346;2022-12-29T11:53:45;7.70;99.90
9699;DHT22;10089;47.876;8.346;2022-12-29T11:56:17;7.60;99.90
9699;DHT22;10089;47.876;8.346;2022-12-29T11:58:45;7.60;99.90
9699;DHT22;10089;47.876;8.346;2022-12-29T12:01:25;7.70;99.90
9699;DHT22;10089;47.876;8.346;2022-12-29T12:04:07;7.60;99.90
9699;DHT22;10089;47.876;8.346;2022-12-29T12:06:49;7.60;99.90
9699;DHT22;10089;47.876;8.346;2022-12-29T12:09:50;7.60;99.90
9699;DHT22;10089;47.876;8.346;2022-12-29T12:12:39;7.50;99.90
9699;DHT22;10089;47.876;8.346;2022-12-29T12:15:17;7.50;99.90
9699;DHT22;10089;47.876;8.346;2022-12-29T12:18:14;7.50;99.90
9699;DHT22;10089;47.876;8.346;2022-12-29T12:20:46;7.60;99.90
9699;DHT22;10089;47.876;8.346;2022-12-29T16:48:58;7.20;99.90
9699;DHT22;10089;47.876;8.346;2022-12-29T16:51:30;7.20;99.90
9699;DHT22;10089;47.876;8.346;2022-12-29T16:53:58;7.20;99.90
9699;DHT22;10089;47.876;8.346;2022-12-29T16:56:30;7.20;99.90
9699;DHT22;10089;47.876;8.346;2022-12-29T18:25:26;6.80;99.90
9699;DHT22;10089;47.876;8.346;2022-12-29T18:27:52;6.80;99.90
9699;DHT22;10089;47.876;8.346;2022-12-29T18:30:18;6.90;99.90
9699;DHT22;10089;47.876;8.346;2022-12-29T18:32:44;6.90;99.90
9699;DHT22;10089;47.876;8.346;2022-12-29T18:35:16;6.90;99.90
9699;DHT22;10089;47.876;8.346;2022-12-29T18:37:43;6.90;99.90
9699;DHT22;10089;47.876;8.346;2022-12-29T18:40:11;7.00;99.90
9699;DHT22;10089;47.876;8.346;2022-12-29T18:42:37;6.90;99.90
9699;DHT22;10089;47.876;8.346;2022-12-29T18:45:17;6.90;99.90
9699;DHT22;10089;47.876;8.346;2022-12-29T18:47:44;6.90;99.90
9699;DHT22;10089;47.876;8.346;2022-12-29T18:50:10;6.90;99.90
9699;DHT22;10089;47.876;8.346;2022-12-29T18:52:36;6.90;99.90
9699;DHT22;10089;47.876;8.346;2022-12-29T18:55:02;6.80;99.90
9699;DHT22;10089;47.876;8.346;2022-12-29T18:57:28;6.80;99.90
9699;DHT22;10089;47.876;8.346;2022-12-29T18:59:56;6.90;99.90
9699;DHT22;10089;47.876;8.346;2022-12-29T19:02:22;6.60;99.90
9699;DHT22;10089;47.876;8.346;2022-12-29T19:04:53;6.60;99.90
9699;DHT22;10089;47.876;8.346;2022-12-29T19:07:21;6.60;99.90
9699;DHT22;10089;47.876;8.346;2022-12-29T19:09:47;6.50;99.90
9699;DHT22;10089;47.876;8.346;2022-12-29T19:12:15;6.50;99.90
9699;DHT22;10089;47.876;8.346;2022-12-29T19:14:41;6.50;99.90
9699;DHT22;10089;47.876;8.346;2022-12-29T19:17:11;6.50;99.90
9699;DHT22;10089;47.876;8.346;2022-12-29T19:19:38;6.40;99.90
9699;DHT22;10089;47.876;8.346;2022-12-29T19:22:04;6.50;99.90
9699;DHT22;10089;47.876;8.346;2022-12-29T19:24:30;6.40;99.90
9699;DHT22;10089;47.876;8.346;2022-12-29T19:26:55;6.40;99.90
9699;DHT22;10089;47.876;8.346;2022-12-29T19:29:21;6.40;99.90
9699;DHT22;10089;47.876;8.346;2022-12-29T19:31:47;6.40;99.90
9699;DHT22;10089;47.876;8.346;2022-12-29T19:34:14;6.30;99.90
9699;DHT22;10089;47.876;8.346;2022-12-29T19:36:41;6.40;99.90
9699;DHT22;10089;47.876;8.346;2022-12-29T19:39:07;6.30;99.90
9699;DHT22;10089;47.876;8.346;2022-12-29T19:41:33;6.30;99.90
9699;DHT22;10089;47.876;8.346;2022-12-29T19:43:59;6.30;99.90
9699;DHT22;10089;47.876;8.346;2022-12-29T19:46:25;6.30;99.90
9699;DHT22;10089;47.876;8.346;2022-12-29T19:48:52;6.30;99.90
9699;DHT22;10089;47.876;8.346;2022-12-29T19:51:19;6.30;99.90
9699;DHT22;10089;47.876;8.346;2022-12-29T19:53:45;6.30;99.90
9699;DHT22;10089;47.876;8.346;2022-12-29T19:56:12;6.30;99.90
9699;DHT22;10089;47.876;8.346;2022-12-29T19:58:38;6.20;99.90
9699;DHT22;10089;47.876;8.346;2022-12-29T20:01:18;6.20;99.90
9699;DHT22;10089;47.876;8.346;2022-12-29T20:03:45;6.20;99.90
9699;DHT22;10089;47.876;8.346;2022-12-29T20:06:11;6.20;99.90
9699;DHT22;10089;47.876;8.346;2022-12-29T20:08:38;6.20;99.90
9699;DHT22;10089;47.876;8.346;2022-12-29T20:11:16;6.20;99.90
9699;DHT22;10089;47.876;8.346;2022-12-29T20:13:42;6.20;99.90
9699;DHT22;10089;47.876;8.346;2022-12-29T20:16:16;6.20;99.90
9699;DHT22;10089;47.876;8.346;2022-12-29T20:18:42;6.20;99.90
9699;DHT22;10089;47.876;8.346;2022-12-29T20:21:17;6.10;99.90
9699;DHT22;10089;47.876;8.346;2022-12-29T20:23:44;6.10;99.90
9699;DHT22;10089;47.876;8.346;2022-12-29T20:26:23;6.10;99.90
9699;DHT22;10089;47.876;8.346;2022-12-29T20:28:49;6.10;99.90
9699;DHT22;10089;47.876;8.346;2022-12-29T20:31:31;6.10;99.90
9699;DHT22;10089;47.876;8.346;2022-12-29T20:33:58;6.10;99.90
9699;DHT22;10089;47.876;8.346;2022-12-29T20:36:26;6.10;99.90
9699;DHT22;10089;47.876;8.346;2022-12-29T20:38:54;6.00;99.90
9699;DHT22;10089;47.876;8.346;2022-12-29T20:41:21;6.00;99.90
9699;DHT22;10089;47.876;8.346;2022-12-29T20:43:47;6.00;99.90
9699;DHT22;10089;47.876;8.346;2022-12-29T20:46:13;6.00;99.90
9699;DHT22;10089;47.876;8.346;2022-12-29T20:48:40;6.00;99.90
9699;DHT22;10089;47.876;8.346;2022-12-29T20:51:06;6.00;99.90
9699;DHT22;10089;47.876;8.346;2022-12-29T20:53:33;5.90;99.90
9699;DHT22;10089;47.876;8.346;2022-12-29T20:56:06;7.00;99.90
9699;DHT22;10089;47.876;8.346;2022-12-29T20:58:33;5.80;99.90
9699;DHT22;10089;47.876;8.346;2022-12-29T21:01:02;5.80;99.90
9699;DHT22;10089;47.876;8.346;2022-12-29T21:03:29;5.70;99.90
9699;DHT22;10089;47.876;8.346;2022-12-29T21:05:55;5.70;99.90
9699;DHT22;10089;47.876;8.346;2022-12-29T21:08:22;5.70;99.90
9699;DHT22;10089;47.876;8.346;2022-12-29T21:10:49;5.70;99.90
9699;DHT22;10089;47.876;8.346;2022-12-29T21:13:15;5.60;99.90
9699;DHT22;10089;47.876;8.346;2022-12-29T21:15:42;5.60;99.90
9699;DHT22;10089;47.876;8.346;2022-12-29T21:18:08;5.60;99.90
9699;DHT22;10089;47.876;8.346;2022-12-29T21:20:34;5.60;99.90
9699;DHT22;10089;47.876;8.346;2022-12-29T21:23:01;5.50;99.90
9699;DHT22;10089;47.876;8.346;2022-12-29T21:25:29;5.50;99.90
9699;DHT22;10089;47.876;8.346;2022-12-29T21:28:06;5.40;99.90
9699;DHT22;10089;47.876;8.346;2022-12-29T21:30:33;5.40;99.90
9699;DHT22;10089;47.876;8.346;2022-12-29T21:32:59;5.40;99.90
9699;DHT22;10089;47.876;8.346;2022-12-29T21:35:25;5.30;99.90
9699;DHT22;10089;47.876;8.346;2022-12-29T21:37:51;5.30;99.90
9699;DHT22;10089;47.876;8.346;2022-12-29T21:40:17;5.30;99.90
9699;DHT22;10089;47.876;8.346;2022-12-29T21:42:42;5.30;99.90
9699;DHT22;10089;47.876;8.346;2022-12-29T21:45:09;5.30;99.90
9699;DHT22;10089;47.876;8.346;2022-12-29T21:47:56;5.30;99.90
9699;DHT22;10089;47.876;8.346;2022-12-29T21:50:43;5.20;99.90
9699;DHT22;10089;47.876;8.346;2022-12-29T21:53:32;5.20;99.90
9699;DHT22;10089;47.876;8.346;2022-12-29T21:56:13;5.20;99.90
9699;DHT22;10089;47.876;8.346;2022-12-29T21:58:43;5.20;99.90
9699;DHT22;10089;47.876;8.346;2022-12-29T22:01:30;5.20;99.90
9699;DHT22;10089;47.876;8.346;2022-12-29T22:04:16;5.10;99.90
9699;DHT22;10089;47.876;8.346;2022-12-29T22:07:02;5.20;99.90
9699;DHT22;10089;47.876;8.346;2022-12-29T22:09:46;5.10;99.90
9699;DHT22;10089;47.876;8.346;2022-12-29T22:12:31;5.10;99.90
9699;DHT22;10089;47.876;8.346;2022-12-29T22:15:15;5.10;99.90
9699;DHT22;10089;47.876;8.346;2022-12-29T22:17:45;5.10;99.90
9699;DHT22;10089;47.876;8.346;2022-12-29T22:20:11;5.10;99.90
9699;DHT22;10089;47.876;8.346;2022-12-29T22:22:37;5.10;99.90
9699;DHT22;10089;47.876;8.346;2022-12-29T22:25:03;5.00;99.90
9699;DHT22;10089;47.876;8.346;2022-12-29T22:27:29;4.90;99.90
9699;DHT22;10089;47.876;8.346;2022-12-29T22:29:55;4.80;99.90
9699;DHT22;10089;47.876;8.346;2022-12-29T22:32:21;4.70;99.90
9699;DHT22;10089;47.876;8.346;2022-12-29T22:34:47;4.60;99.90
9699;DHT22;10089;47.876;8.346;2022-12-29T22:37:14;4.60;99.90
9699;DHT22;10089;47.876;8.346;2022-12-29T22:39:39;4.50;99.90
9699;DHT22;10089;47.876;8.346;2022-12-29T22:42:05;4.50;99.90
9699;DHT22;10089;47.876;8.346;2022-12-29T22:44:31;4.50;99.90
9699;DHT22;10089;47.876;8.346;2022-12-29T22:46:57;4.50;99.90
9699;DHT22;10089;47.876;8.346;2022-12-29T22:49:23;4.50;99.90
9699;DHT22;10089;47.876;8.346;2022-12-29T22:51:49;4.50;99.90
9699;DHT22;10089;47.876;8.346;2022-12-29T22:54:16;4.40;99.90
9699;DHT22;10089;47.876;8.346;2022-12-29T22:56:43;4.40;99.90
9699;DHT22;10089;47.876;8.346;2022-12-29T22:59:10;4.50;99.90
9699;DHT22;10089;47.876;8.346;2022-12-29T23:01:36;4.50;99.90
9699;DHT22;10089;47.876;8.346;2022-12-29T23:04:02;4.50;99.90
9699;DHT22;10089;47.876;8.346;2022-12-29T23:06:28;4.50;99.90
9699;DHT22;10089;47.876;8.346;2022-12-29T23:08:55;4.50;99.90
9699;DHT22;10089;47.876;8.346;2022-12-29T23:11:21;4.40;99.90
9699;DHT22;10089;47.876;8.346;2022-12-29T23:13:47;4.40;99.90
9699;DHT22;10089;47.876;8.346;2022-12-29T23:16:14;4.50;99.90
9699;DHT22;10089;47.876;8.346;2022-12-29T23:18:40;4.50;99.90
9699;DHT22;10089;47.876;8.346;2022-12-29T23:21:06;4.40;99.90
9699;DHT22;10089;47.876;8.346;2022-12-29T23:23:32;4.40;99.90
9699;DHT22;10089;47.876;8.346;2022-12-29T23:26:17;4.40;99.90
9699;DHT22;10089;47.876;8.346;2022-12-29T23:28:44;4.40;99.90
9699;DHT22;10089;47.876;8.346;2022-12-29T23:31:09;4.40;99.90
9699;DHT22;10089;47.876;8.346;2022-12-29T23:33:35;4.40;99.90
9699;DHT22;10089;47.876;8.346;2022-12-29T23:36:01;4.30;99.90
9699;DHT22;10089;47.876;8.346;2022-12-29T23:38:27;4.30;99.90
9699;DHT22;10089;47.876;8.346;2022-12-29T23:40:53;4.30;99.90
9699;DHT22;10089;47.876;8.346;2022-12-29T23:43:19;4.30;99.90
9699;DHT22;10089;47.876;8.346;2022-12-29T23:45:44;4.30;99.90
9699;DHT22;10089;47.876;8.346;2022-12-29T23:48:10;4.30;99.90
9699;DHT22;10089;47.876;8.346;2022-12-29T23:50:39;4.30;99.90
9699;DHT22;10089;47.876;8.346;2022-12-29T23:53:06;4.30;99.90